Time;durP1;ratioP1;P1;durP2;ratioP2;P2;SDS_P1;SDS_P2;PMS_P1;PMS_P2;Temp;Humidity;BMP_temperature;BMP_pressure;BME280_temperature;BME280_humidity;BME280_pressure;Samples;Min_cycle;Max_cycle;Signal;HPM_P1;HPM_P2
2023/06/30 00:00:32;;;;;;;10.88;3.45;;;;;;;18.53;71.71;101384.66;5074987;28;20385;-64
2023/06/30 00:02:59;;;;;;;9.18;3.03;;;;;;;18.59;71.17;101373.00;5074851;28;20435;-63
2023/06/30 00:05:25;;;;;;;7.50;3.05;;;;;;;18.46;71.95;101369.59;5074889;28;20393;-63
2023/06/30 00:07:54;;;;;;;9.77;3.00;;;;;;;18.53;71.66;101372.16;5074817;28;20033;-63
2023/06/30 00:10:22;;;;;;;6.32;3.10;;;;;;;18.40;72.31;101367.00;5074633;28;20080;-63
2023/06/30 00:12:48;;;;;;;6.28;3.20;;;;;;;18.34;72.91;101372.44;5074717;28;20062;-63
2023/06/30 00:15:13;;;;;;;8.63;3.47;;;;;;;18.26;73.10;101375.19;5074758;28;20112;-63
2023/06/30 00:17:38;;;;;;;8.52;3.30;;;;;;;18.24;73.37;101379.66;5074693;28;20050;-63
2023/06/30 00:20:06;;;;;;;8.63;3.33;;;;;;;18.19;73.44;101377.06;5074936;28;20067;-63
2023/06/30 00:22:35;;;;;;;10.05;3.47;;;;;;;18.23;73.31;101383.25;5056582;28;20447;-63
2023/06/30 00:25:01;;;;;;;7.60;3.05;;;;;;;18.21;73.40;101369.91;5074550;28;20024;-63
2023/06/30 00:27:26;;;;;;;8.63;3.17;;;;;;;18.19;72.80;101378.84;5074481;28;20123;-63
2023/06/30 00:29:52;;;;;;;7.95;3.10;;;;;;;18.16;73.08;101370.88;5074392;28;20497;-63
2023/06/30 00:32:17;;;;;;;7.20;3.05;;;;;;;18.20;72.59;101369.91;5074315;28;20071;-63
2023/06/30 00:34:43;;;;;;;7.70;3.10;;;;;;;18.14;72.84;101365.53;5074594;28;20058;-63
2023/06/30 00:37:08;;;;;;;12.50;3.20;;;;;;;18.16;72.73;101368.22;5074329;28;20112;-63
2023/06/30 00:39:33;;;;;;;8.35;3.03;;;;;;;18.07;72.54;101363.81;5074535;28;20186;-63
2023/06/30 00:41:59;;;;;;;8.75;3.15;;;;;;;18.03;72.60;101359.44;5074465;28;20025;-62
2023/06/30 00:44:25;;;;;;;7.32;2.85;;;;;;;17.92;73.34;101358.69;5074165;28;20449;-63
2023/06/30 00:46:50;;;;;;;10.38;3.15;;;;;;;17.89;73.59;101359.56;5074255;28;20494;-63
2023/06/30 00:49:16;;;;;;;9.15;3.20;;;;;;;17.74;73.36;101357.09;5074130;28;20029;-62
2023/06/30 00:51:41;;;;;;;10.70;3.20;;;;;;;17.74;73.31;101365.13;5073949;28;20090;-63
2023/06/30 00:54:07;;;;;;;7.47;3.03;;;;;;;17.69;73.29;101362.47;5073240;28;20045;-62
2023/06/30 00:56:33;;;;;;;10.88;3.20;;;;;;;17.77;73.19;101365.97;5073923;28;20028;-63
2023/06/30 00:58:58;;;;;;;10.75;3.05;;;;;;;17.75;73.20;101362.41;5073825;28;20029;-63
2023/06/30 01:01:31;;;;;;;8.68;2.88;;;;;;;17.78;72.78;101372.19;5073802;28;20474;-62
2023/06/30 01:04:19;;;;;;;12.02;3.03;;;;;;;17.75;72.27;101366.88;5055805;28;20394;-63
2023/06/30 01:07:15;;;;;;;8.00;3.00;;;;;;;17.75;72.32;101374.91;5073721;28;20035;-63
2023/06/30 01:09:51;;;;;;;9.77;2.97;;;;;;;17.72;72.50;101377.56;5064627;28;20419;-63
2023/06/30 01:12:17;;;;;;;11.07;3.03;;;;;;;17.67;72.43;101369.59;5073766;28;20117;-63
2023/06/30 01:14:44;;;;;;;11.30;3.10;;;;;;;17.62;72.60;101373.22;5055631;28;20049;-63
2023/06/30 01:17:10;;;;;;;11.85;2.90;;;;;;;17.65;72.58;101368.72;5073419;28;20047;-63
2023/06/30 01:19:44;;;;;;;10.00;3.40;;;;;;;17.61;72.44;101367.00;5073427;28;20115;-62
2023/06/30 01:22:27;;;;;;;9.32;3.03;;;;;;;17.66;72.13;101370.50;5073796;28;20029;-63
2023/06/30 01:24:57;;;;;;;12.82;3.20;;;;;;;17.55;72.45;101372.38;5073459;28;20462;-63
2023/06/30 01:27:24;;;;;;;10.88;3.03;;;;;;;17.44;72.94;101379.63;5073382;28;20095;-63
2023/06/30 01:29:51;;;;;;;9.18;3.15;;;;;;;17.44;72.94;101377.84;5055559;28;20473;-63
2023/06/30 01:32:17;;;;;;;9.93;2.95;;;;;;;17.57;72.54;101383.06;5073378;28;20119;-62
2023/06/30 01:34:46;;;;;;;10.45;3.22;;;;;;;17.45;72.88;101381.38;5073460;28;20111;-63
2023/06/30 01:37:12;;;;;;;11.65;2.90;;;;;;;17.53;72.46;101372.41;5073509;28;20058;-65
2023/06/30 01:39:38;;;;;;;8.70;2.83;;;;;;;17.47;72.76;101372.47;5073343;28;20038;-63
2023/06/30 01:42:04;;;;;;;10.43;3.10;;;;;;;17.50;72.67;101372.41;5073253;28;20024;-63
2023/06/30 01:44:30;;;;;;;13.15;2.97;;;;;;;17.41;72.73;101374.31;5073277;28;20032;-63
2023/06/30 01:46:56;;;;;;;7.60;2.67;;;;;;;17.41;72.72;101367.16;5073111;28;20362;-63
2023/06/30 01:49:21;;;;;;;12.25;3.20;;;;;;;17.34;72.99;101362.75;5072843;28;20474;-63
2023/06/30 01:51:47;;;;;;;11.57;2.90;;;;;;;17.31;72.81;101352.13;5073028;28;20036;-62
2023/06/30 01:54:12;;;;;;;9.70;2.90;;;;;;;17.21;73.05;101358.44;5073113;28;20027;-63
2023/06/30 01:56:46;;;;;;;12.98;2.83;;;;;;;17.19;73.15;101360.25;5072939;28;20124;-63
2023/06/30 01:59:11;;;;;;;5.78;2.60;;;;;;;17.14;72.92;101359.41;5073049;28;20028;-63
2023/06/30 02:01:36;;;;;;;9.52;3.25;;;;;;;17.20;72.51;101360.22;5055038;28;20052;-63
2023/06/30 02:04:02;;;;;;;7.03;2.60;;;;;;;17.12;72.69;101358.50;5072794;28;20048;-63
2023/06/30 02:06:27;;;;;;;9.60;3.10;;;;;;;17.07;72.67;101352.31;5072932;28;20036;-63
2023/06/30 02:08:53;;;;;;;9.52;2.90;;;;;;;17.07;72.74;101361.22;5072785;28;20024;-62
2023/06/30 02:11:20;;;;;;;8.90;2.80;;;;;;;17.03;72.92;101359.47;5072495;28;20048;-62
2023/06/30 02:13:45;;;;;;;9.02;3.10;;;;;;;17.05;72.54;101357.69;5072596;28;20039;-63
2023/06/30 02:16:11;;;;;;;10.30;2.80;;;;;;;17.06;72.67;101355.91;5073132;28;20441;-63
2023/06/30 02:18:39;;;;;;;5.60;2.53;;;;;;;17.02;72.35;101368.38;5072593;28;20021;-63
2023/06/30 02:21:05;;;;;;;7.60;2.83;;;;;;;16.94;72.55;101364.88;5073049;28;20041;-63
2023/06/30 02:23:30;;;;;;;11.32;2.90;;;;;;;16.95;72.42;101367.53;5072710;28;20167;-63
2023/06/30 02:25:56;;;;;;;10.23;3.10;;;;;;;16.92;72.42;101358.69;5072739;28;20028;-63
2023/06/30 02:28:22;;;;;;;13.25;3.00;;;;;;;16.91;72.13;101348.88;5072733;28;20024;-63
2023/06/30 02:30:47;;;;;;;7.93;2.72;;;;;;;16.89;71.92;101354.25;5072607;28;20025;-63
2023/06/30 02:33:12;;;;;;;6.55;2.67;;;;;;;16.88;72.07;101363.16;5072673;28;20059;-63
2023/06/30 02:35:38;;;;;;;9.75;3.10;;;;;;;16.80;72.39;101356.09;5072579;28;20523;-63
2023/06/30 02:38:03;;;;;;;10.77;3.30;;;;;;;16.81;72.20;101364.09;5072649;28;20715;-63
2023/06/30 02:40:29;;;;;;;12.88;3.20;;;;;;;16.78;72.00;101367.66;5072786;28;20035;-63
2023/06/30 02:42:55;;;;;;;6.30;2.65;;;;;;;16.76;71.86;101372.13;5072348;28;20039;-63
2023/06/30 02:45:20;;;;;;;8.90;2.85;;;;;;;16.77;71.85;101379.22;5072545;28;20059;-63
2023/06/30 02:47:46;;;;;;;7.18;2.80;;;;;;;16.67;72.25;101372.16;5072616;28;20053;-62
2023/06/30 02:50:11;;;;;;;10.73;3.03;;;;;;;16.66;72.39;101386.41;5072673;28;20029;-63
2023/06/30 02:52:37;;;;;;;11.15;2.80;;;;;;;16.58;72.59;101384.66;5072358;28;20029;-63
2023/06/30 02:55:03;;;;;;;8.95;3.00;;;;;;;16.53;73.05;101385.56;5054546;28;20025;-63
2023/06/30 02:57:28;;;;;;;8.32;3.10;;;;;;;16.55;72.92;101382.88;5072590;28;20028;-63
2023/06/30 02:59:55;;;;;;;8.57;2.65;;;;;;;16.56;73.00;101392.66;5072307;28;20044;-64
2023/06/30 03:02:20;;;;;;;11.52;2.80;;;;;;;16.52;72.81;101381.09;5054187;28;20575;-63
2023/06/30 03:04:45;;;;;;;7.45;3.00;;;;;;;16.49;72.94;101388.25;5072239;28;20025;-64
2023/06/30 03:07:11;;;;;;;9.50;3.20;;;;;;;16.43;73.07;101393.59;5072396;28;20040;-63
2023/06/30 03:09:36;;;;;;;11.85;3.28;;;;;;;16.34;73.63;101391.88;5072145;28;20481;-63
2023/06/30 03:12:02;;;;;;;12.43;3.50;;;;;;;16.30;73.74;101395.44;5054103;28;20132;-63
2023/06/30 03:14:27;;;;;;;12.40;3.00;;;;;;;16.25;73.85;101395.47;5071915;28;20513;-62
2023/06/30 03:16:53;;;;;;;7.90;3.00;;;;;;;16.17;74.07;101383.06;5072971;28;20039;-63
2023/06/30 03:19:18;;;;;;;10.10;3.05;;;;;;;16.06;74.55;101388.44;5075753;28;20111;-63
2023/06/30 03:21:43;;;;;;;7.93;3.08;;;;;;;16.00;74.84;101386.66;5075883;28;20436;-63
2023/06/30 03:24:09;;;;;;;9.63;3.17;;;;;;;15.95;74.63;101379.56;5075919;28;20029;-63
2023/06/30 03:26:34;;;;;;;8.52;2.92;;;;;;;15.92;74.64;101379.56;5075627;28;20483;-63
2023/06/30 03:29:01;;;;;;;8.40;3.05;;;;;;;15.83;75.00;101380.47;5075509;28;20028;-63
2023/06/30 03:31:27;;;;;;;7.40;3.05;;;;;;;15.82;75.07;101378.72;5075523;28;20063;-63
2023/06/30 03:33:52;;;;;;;9.25;3.20;;;;;;;15.71;75.45;101373.41;5075703;28;20056;-63
2023/06/30 03:36:17;;;;;;;7.20;3.13;;;;;;;15.57;75.75;101375.16;5075690;28;20036;-62
2023/06/30 03:38:43;;;;;;;10.60;3.58;;;;;;;15.47;76.30;101370.75;5075444;28;20407;-63
2023/06/30 03:41:08;;;;;;;11.38;3.45;;;;;;;15.34;76.87;101376.97;5075482;28;20043;-62
2023/06/30 03:43:34;;;;;;;8.45;3.40;;;;;;;15.28;77.15;101367.19;5075167;28;20059;-62
2023/06/30 03:45:59;;;;;;;8.35;3.53;;;;;;;15.31;77.40;101368.97;5075317;28;20039;-63
2023/06/30 03:48:25;;;;;;;9.95;4.03;;;;;;;15.28;77.45;101370.75;5057279;28;20034;-62
2023/06/30 03:50:54;;;;;;;10.32;3.80;;;;;;;15.26;77.59;101369.00;5075050;28;20112;-63
2023/06/30 03:53:21;;;;;;;11.43;3.70;;;;;;;15.24;77.26;101368.97;5075198;28;20021;-63
2023/06/30 03:55:46;;;;;;;8.85;3.42;;;;;;;15.35;77.10;101368.97;5075438;28;20104;-63
2023/06/30 03:58:12;;;;;;;7.32;3.40;;;;;;;15.38;77.29;101363.66;5075069;28;20052;-62
2023/06/30 04:00:37;;;;;;;8.80;3.50;;;;;;;15.40;76.81;101363.66;5075132;28;20028;-63
2023/06/30 04:03:02;;;;;;;8.80;4.00;;;;;;;15.45;76.48;101370.72;5074784;28;20037;-63
2023/06/30 04:05:28;;;;;;;11.13;3.78;;;;;;;15.41;76.01;101362.75;5075180;28;20099;-63
2023/06/30 04:07:53;;;;;;;9.90;3.97;;;;;;;15.43;76.26;101369.88;5074910;28;20090;-63
2023/06/30 04:10:19;;;;;;;10.07;3.80;;;;;;;15.43;76.16;101363.66;5074668;28;20049;-63
2023/06/30 04:12:44;;;;;;;6.97;3.63;;;;;;;15.39;76.13;101372.53;5074565;28;20025;-62
2023/06/30 04:15:10;;;;;;;10.50;3.80;;;;;;;15.40;76.56;101369.84;5074748;28;20056;-63
2023/06/30 04:17:38;;;;;;;7.50;4.35;;;;;;;15.37;76.55;101371.63;5074774;28;20407;-62
2023/06/30 04:20:07;;;;;;;13.35;4.22;;;;;;;15.31;77.05;101375.19;5074691;28;20078;-63
2023/06/30 04:22:32;;;;;;;9.68;4.10;;;;;;;15.23;77.70;101369.88;5074829;28;20081;-63
2023/06/30 04:24:58;;;;;;;9.50;4.22;;;;;;;15.15;77.84;101368.09;5074583;28;20028;-63
2023/06/30 04:27:23;;;;;;;12.35;4.50;;;;;;;15.11;78.70;101368.97;5074660;28;20359;-63
2023/06/30 04:29:48;;;;;;;8.18;4.35;;;;;;;15.17;78.34;101371.66;5074519;28;20028;-62
2023/06/30 04:32:14;;;;;;;9.32;4.28;;;;;;;15.23;78.12;101375.19;5074277;28;20329;-63
2023/06/30 04:34:39;;;;;;;14.30;4.50;;;;;;;15.34;77.74;101367.22;5074406;28;20017;-62
2023/06/30 04:37:04;;;;;;;11.45;4.90;;;;;;;15.36;77.67;101372.53;5074314;28;20149;-62
2023/06/30 04:39:30;;;;;;;9.05;4.55;;;;;;;15.42;77.81;101375.19;5074285;28;20389;-63
2023/06/30 04:41:55;;;;;;;10.82;4.82;;;;;;;15.45;77.45;101370.72;5074230;28;20032;-63
2023/06/30 04:44:21;;;;;;;9.00;4.18;;;;;;;15.55;77.40;101371.63;5074203;28;20052;-62
2023/06/30 04:46:46;;;;;;;10.52;4.40;;;;;;;15.61;76.95;101368.06;5074119;28;20549;-63
2023/06/30 04:49:11;;;;;;;10.38;4.10;;;;;;;15.74;76.59;101369.84;5073817;28;20024;-63
2023/06/30 04:51:37;;;;;;;14.05;4.15;;;;;;;15.74;76.69;101377.84;5074252;28;20485;-62
2023/06/30 04:54:02;;;;;;;9.63;4.30;;;;;;;15.86;76.50;101369.81;5073886;28;20615;-63
2023/06/30 04:56:28;;;;;;;13.05;4.40;;;;;;;15.92;76.45;101382.25;5073920;28;20029;-63
2023/06/30 04:58:53;;;;;;;9.55;4.40;;;;;;;15.96;76.59;101371.56;5073920;28;20103;-62
2023/06/30 05:01:18;;;;;;;13.30;4.68;;;;;;;16.09;76.09;101380.41;5073943;28;20024;-63
2023/06/30 05:03:44;;;;;;;12.27;4.72;;;;;;;16.16;75.69;101378.63;5073926;28;20466;-62
2023/06/30 05:06:09;;;;;;;12.10;4.63;;;;;;;16.23;75.36;101378.59;5073695;28;20467;-62
2023/06/30 05:08:34;;;;;;;9.38;4.32;;;;;;;16.33;75.20;101374.09;5073618;28;20111;-63
2023/06/30 05:11:00;;;;;;;11.73;4.95;;;;;;;16.42;75.06;101375.84;5073273;28;20052;-62
2023/06/30 05:13:26;;;;;;;13.15;4.85;;;;;;;16.47;74.89;101366.91;5073342;28;20032;-63
2023/06/30 05:15:52;;;;;;;10.85;4.70;;;;;;;16.63;74.70;101367.72;5073474;28;20039;-64
2023/06/30 05:18:17;;;;;;;10.07;4.63;;;;;;;16.83;74.02;101366.72;5073443;28;20028;-63
2023/06/30 05:20:44;;;;;;;10.80;4.93;;;;;;;17.08;73.53;101364.78;5073581;28;20111;-63
2023/06/30 05:23:09;;;;;;;9.48;4.60;;;;;;;17.25;72.47;101366.41;5073489;28;20040;-63
2023/06/30 05:25:35;;;;;;;10.90;4.60;;;;;;;17.42;71.67;101368.94;5073395;28;20090;-63
2023/06/30 05:28:00;;;;;;;8.73;4.00;;;;;;;17.51;70.61;101378.66;5073351;28;20028;-61
2023/06/30 05:30:26;;;;;;;7.70;4.03;;;;;;;17.61;70.18;101374.13;5073518;28;20465;-62
2023/06/30 05:32:51;;;;;;;10.02;4.40;;;;;;;17.65;69.99;101368.72;5073262;28;20533;-62
2023/06/30 05:35:16;;;;;;;10.05;4.00;;;;;;;17.83;70.16;101373.03;5073269;28;20428;-63
2023/06/30 05:37:42;;;;;;;10.07;4.13;;;;;;;17.90;70.21;101365.81;5073174;28;20104;-63
2023/06/30 05:40:08;;;;;;;10.27;4.07;;;;;;;17.94;68.51;101364.88;5055021;28;20029;-63
2023/06/30 05:42:33;;;;;;;8.88;3.75;;;;;;;17.94;68.44;101376.47;5073451;28;20462;-63
2023/06/30 05:44:58;;;;;;;9.63;3.83;;;;;;;18.09;68.19;101375.41;5072889;28;20119;-63
2023/06/30 05:47:24;;;;;;;6.82;3.35;;;;;;;18.13;67.58;101382.50;5073111;28;20067;-62
2023/06/30 05:49:49;;;;;;;10.57;3.50;;;;;;;18.27;67.16;101375.16;5073160;28;20059;-63
2023/06/30 05:52:15;;;;;;;7.45;3.30;;;;;;;18.40;66.14;101383.94;5073341;28;20067;-62
2023/06/30 05:54:41;;;;;;;7.88;3.63;;;;;;;18.60;65.22;101380.13;5072961;28;20054;-62
2023/06/30 05:57:07;;;;;;;9.35;3.92;;;;;;;18.73;65.69;101373.72;5072992;28;20036;-63
2023/06/30 05:59:32;;;;;;;7.53;3.53;;;;;;;18.85;65.07;101375.34;5073228;28;20036;-63
2023/06/30 06:01:57;;;;;;;8.80;3.65;;;;;;;18.88;64.44;101369.91;5072902;28;20112;-63
2023/06/30 06:04:23;;;;;;;11.20;3.50;;;;;;;19.08;65.12;101377.66;5055028;28;20070;-63
2023/06/30 06:06:49;;;;;;;8.55;3.22;;;;;;;19.12;62.97;101372.22;5072761;28;20054;-63
2023/06/30 06:09:14;;;;;;;7.65;3.40;;;;;;;19.30;63.82;101376.38;5072797;28;20074;-63
2023/06/30 06:11:40;;;;;;;8.30;3.47;;;;;;;19.43;62.71;101369.00;5072488;28;20051;-63
2023/06/30 06:14:05;;;;;;;6.82;3.30;;;;;;;19.54;61.44;101376.88;5072555;28;20033;-63
2023/06/30 06:16:30;;;;;;;8.65;3.40;;;;;;;19.67;60.53;101381.13;5072694;28;20490;-63
2023/06/30 06:18:56;;;;;;;10.60;3.50;;;;;;;19.81;60.18;101375.50;5072637;28;20028;-63
2023/06/30 06:21:28;;;;;;;11.48;3.50;;;;;;;19.90;59.41;101373.53;5072757;28;20379;-63
2023/06/30 06:23:56;;;;;;;6.55;3.35;;;;;;;19.98;59.64;101376.94;5072759;28;20486;-62
2023/06/30 06:26:21;;;;;;;10.73;3.58;;;;;;;20.15;57.69;101381.97;5072719;28;20024;-63
2023/06/30 06:28:47;;;;;;;5.97;3.28;;;;;;;20.24;57.84;101381.78;5072493;28;20474;-63
2023/06/30 06:31:12;;;;;;;5.50;3.33;;;;;;;20.44;56.59;101376.00;5072392;28;20474;-63
2023/06/30 06:33:37;;;;;;;7.30;3.13;;;;;;;20.68;55.42;101388.03;5072383;28;20067;-62
2023/06/30 06:36:03;;;;;;;7.63;3.38;;;;;;;20.90;55.33;101380.38;5072539;28;20028;-63
2023/06/30 06:38:28;;;;;;;8.27;3.13;;;;;;;21.15;53.89;101380.66;5072543;28;20028;-63
2023/06/30 06:40:54;;;;;;;8.32;2.90;;;;;;;21.18;51.72;101382.41;5072593;28;20033;-63
2023/06/30 06:43:24;;;;;;;7.32;3.33;;;;;;;21.29;51.73;101377.66;5072238;28;20036;-63
2023/06/30 06:45:50;;;;;;;7.63;2.83;;;;;;;21.39;49.65;101392.66;5072844;28;20128;-63
2023/06/30 06:48:20;;;;;;;4.97;2.55;;;;;;;21.59;49.67;101383.19;5072454;28;20032;-63
2023/06/30 06:50:49;;;;;;;4.90;2.60;;;;;;;21.76;49.22;101383.63;5072371;28;20024;-63
2023/06/30 06:53:19;;;;;;;6.82;2.80;;;;;;;21.96;49.25;101383.94;5075674;28;20033;-63
2023/06/30 06:55:45;;;;;;;9.43;2.85;;;;;;;22.17;49.01;101381.63;5076116;28;20130;-63
2023/06/30 06:58:11;;;;;;;6.88;2.72;;;;;;;22.28;47.21;101386.69;5076445;28;20028;-63
2023/06/30 07:00:36;;;;;;;6.40;2.60;;;;;;;22.35;46.79;101385.56;5076186;28;20032;-63
2023/06/30 07:03:01;;;;;;;7.57;2.63;;;;;;;22.43;46.18;101378.16;5076221;28;20037;-63
2023/06/30 07:05:27;;;;;;;7.20;2.72;;;;;;;22.54;46.84;101378.72;5076064;28;20052;-63
2023/06/30 07:07:52;;;;;;;8.30;2.83;;;;;;;22.67;46.74;101385.50;5058255;28;20021;-63
2023/06/30 07:10:17;;;;;;;5.15;2.35;;;;;;;22.86;45.77;101383.09;5075722;28;20053;-63
2023/06/30 07:12:43;;;;;;;8.88;2.40;;;;;;;23.04;44.19;101386.16;5075980;28;20025;-62
2023/06/30 07:15:09;;;;;;;5.43;2.33;;;;;;;22.98;44.39;101388.13;5075837;28;20201;-63
2023/06/30 07:17:34;;;;;;;6.82;2.30;;;;;;;23.09;43.61;101386.94;5058191;28;20025;-63
2023/06/30 07:19:59;;;;;;;4.03;2.15;;;;;;;23.24;43.07;101383.72;5076083;28;20400;-64
2023/06/30 07:22:25;;;;;;;5.45;2.20;;;;;;;23.40;42.30;101384.97;5075720;28;20032;-63
2023/06/30 07:24:50;;;;;;;3.53;2.00;;;;;;;23.60;42.54;101386.09;5075734;28;20028;-63
2023/06/30 07:27:16;;;;;;;4.57;2.20;;;;;;;23.58;41.22;101388.84;5075573;28;20025;-63
2023/06/30 07:29:41;;;;;;;5.25;2.10;;;;;;;23.67;41.28;101379.56;5075541;28;20107;-62
2023/06/30 07:32:07;;;;;;;6.43;2.10;;;;;;;23.93;40.71;101378.63;5075805;28;20028;-63
2023/06/30 07:34:33;;;;;;;5.03;2.10;;;;;;;24.08;40.47;101383.50;5075356;28;20032;-64
2023/06/30 07:37:00;;;;;;;5.18;1.88;;;;;;;24.22;38.51;101381.16;5075683;28;20032;-63
2023/06/30 07:39:25;;;;;;;6.07;2.10;;;;;;;24.42;39.00;101384.97;5075506;28;20029;-63
2023/06/30 07:41:51;;;;;;;3.83;2.00;;;;;;;24.47;39.10;101388.38;5075434;28;20432;-63
2023/06/30 07:44:17;;;;;;;4.75;2.05;;;;;;;24.62;39.11;101387.75;5075417;28;20025;-62
2023/06/30 07:46:42;;;;;;;5.22;2.00;;;;;;;24.69;37.23;101381.16;5075379;28;20039;-63
2023/06/30 07:49:08;;;;;;;4.03;2.10;;;;;;;24.71;37.45;101382.00;5075211;28;20473;-63
2023/06/30 07:51:33;;;;;;;8.25;2.30;;;;;;;24.85;38.11;101383.28;5057282;28;20052;-63
2023/06/30 07:53:58;;;;;;;5.88;2.15;;;;;;;25.02;37.21;101371.78;5075265;28;20060;-63
2023/06/30 07:56:24;;;;;;;3.35;1.85;;;;;;;25.25;36.04;101378.97;5075104;28;20036;-63
2023/06/30 07:58:49;;;;;;;4.88;1.90;;;;;;;25.26;35.37;101380.72;5074975;28;20024;-64
2023/06/30 08:01:15;;;;;;;5.25;2.00;;;;;;;25.30;36.06;101382.34;5075031;28;20495;-63
2023/06/30 08:03:40;;;;;;;8.18;2.08;;;;;;;25.53;35.92;101384.09;5056668;28;20054;-64
2023/06/30 08:06:05;;;;;;;3.90;1.92;;;;;;;25.59;35.25;101379.28;5075010;28;20033;-64
2023/06/30 08:08:31;;;;;;;7.40;2.08;;;;;;;25.64;34.54;101389.91;5074971;28;20028;-64
2023/06/30 08:10:57;;;;;;;5.47;2.05;;;;;;;25.64;34.76;101382.66;5074715;28;20126;-63
2023/06/30 08:13:23;;;;;;;5.97;2.40;;;;;;;25.72;34.82;101382.34;5074642;28;20527;-63
2023/06/30 08:15:48;;;;;;;5.05;1.90;;;;;;;25.89;34.15;101378.94;5074849;28;20029;-63
2023/06/30 08:18:13;;;;;;;5.10;2.00;;;;;;;26.04;34.18;101380.06;5074638;28;20025;-63
2023/06/30 08:20:39;;;;;;;5.85;2.30;;;;;;;26.31;34.14;101383.34;5074710;28;20028;-63
2023/06/30 08:23:04;;;;;;;5.05;1.90;;;;;;;26.41;33.66;101379.25;5074667;28;20056;-64
2023/06/30 08:25:30;;;;;;;4.82;2.10;;;;;;;26.38;32.34;101376.66;5056787;28;20047;-63
2023/06/30 08:27:55;;;;;;;4.53;2.00;;;;;;;26.49;32.05;101382.50;5074516;28;20081;-63
2023/06/30 08:30:21;;;;;;;5.40;2.00;;;;;;;26.75;32.36;101365.00;5074699;28;20028;-63
2023/06/30 08:32:46;;;;;;;4.55;1.88;;;;;;;26.96;33.65;101366.66;5074534;28;20382;-63
2023/06/30 08:35:11;;;;;;;7.10;2.17;;;;;;;27.13;32.43;101374.00;5074377;28;20469;-63
2023/06/30 08:37:38;;;;;;;5.10;2.20;;;;;;;27.30;31.96;101374.97;5074355;28;20055;-63
2023/06/30 08:40:04;;;;;;;5.90;2.08;;;;;;;27.14;31.42;101370.31;5074387;28;20040;-64
2023/06/30 08:42:31;;;;;;;5.55;2.10;;;;;;;27.12;31.58;101361.38;5074355;28;20389;-63
2023/06/30 08:45:01;;;;;;;4.88;2.20;;;;;;;27.24;33.01;101359.91;5074092;28;20058;-63
2023/06/30 08:47:28;;;;;;;5.72;2.28;;;;;;;27.51;31.30;101362.16;5074203;28;20021;-63
2023/06/30 08:49:54;;;;;;;5.57;2.00;;;;;;;27.61;30.16;101361.56;5074145;28;20028;-63
2023/06/30 08:52:21;;;;;;;5.25;2.00;;;;;;;27.75;30.31;101355.47;5074039;28;20470;-62
2023/06/30 08:54:46;;;;;;;4.90;2.17;;;;;;;27.59;30.54;101347.22;5073995;28;20039;-63
2023/06/30 08:57:15;;;;;;;6.63;2.20;;;;;;;27.71;30.91;101348.41;5056157;28;20025;-63
2023/06/30 08:59:42;;;;;;;6.03;2.38;;;;;;;27.57;30.98;101351.84;5055959;28;20033;-63
2023/06/30 09:02:08;;;;;;;6.05;2.10;;;;;;;27.67;30.35;101341.38;5073761;28;20436;-62
2023/06/30 09:04:35;;;;;;;4.07;2.10;;;;;;;27.64;30.69;101344.25;5073688;28;20028;-63
2023/06/30 09:07:02;;;;;;;5.60;2.20;;;;;;;27.48;32.40;101348.72;5073913;28;20074;-63
2023/06/30 09:09:35;;;;;;;5.28;2.03;;;;;;;27.40;30.25;101340.97;5073626;28;20070;-63
2023/06/30 09:12:00;;;;;;;4.75;2.10;;;;;;;27.13;31.13;101343.28;5073743;28;20057;-63
2023/06/30 09:14:33;;;;;;;6.13;2.22;;;;;;;26.84;31.24;101339.25;5072693;28;20024;-62
2023/06/30 09:17:01;;;;;;;5.95;2.25;;;;;;;26.47;32.00;101338.34;5073862;28;20040;-63
2023/06/30 09:19:28;;;;;;;5.20;2.33;;;;;;;26.27;32.25;101346.50;5055384;28;20032;-63
2023/06/30 09:21:53;;;;;;;6.13;2.35;;;;;;;26.17;33.35;101343.34;5073568;28;20543;-63
2023/06/30 09:24:19;;;;;;;7.95;2.45;;;;;;;26.31;31.17;101342.69;5073373;28;20036;-63
2023/06/30 09:26:44;;;;;;;6.43;2.38;;;;;;;26.35;31.34;101341.59;5073626;28;20082;-63
2023/06/30 09:29:10;;;;;;;5.82;2.30;;;;;;;26.82;32.05;101336.63;5073261;28;20501;-63
2023/06/30 09:31:36;;;;;;;8.85;2.40;;;;;;;26.86;30.51;101340.09;5073363;28;20039;-63
2023/06/30 09:34:13;;;;;;;5.97;2.20;;;;;;;27.12;31.86;101336.97;5073457;28;20399;-63
2023/06/30 09:36:53;;;;;;;4.63;2.10;;;;;;;27.33;30.86;101339.56;5073462;28;20057;-63
2023/06/30 09:39:19;;;;;;;6.68;2.40;;;;;;;27.36;29.61;101334.81;5073212;28;20500;-63
2023/06/30 09:41:46;;;;;;;5.35;2.25;;;;;;;27.18;30.37;101338.50;5073235;28;20028;-62
2023/06/30 09:44:13;;;;;;;6.72;2.30;;;;;;;27.24;30.04;101330.06;5073111;28;20028;-62
2023/06/30 09:46:46;;;;;;;4.75;2.22;;;;;;;27.66;31.24;101329.63;5073065;28;20355;-63
2023/06/30 09:49:26;;;;;;;4.60;2.10;;;;;;;28.03;29.90;101324.09;5073010;28;20385;-63
2023/06/30 09:51:55;;;;;;;5.07;2.00;;;;;;;28.19;29.05;101322.31;5073092;28;20020;-63
2023/06/30 09:54:20;;;;;;;8.98;2.50;;;;;;;28.02;28.96;101325.94;5072961;28;20021;-63
2023/06/30 09:56:46;;;;;;;5.22;2.22;;;;;;;27.74;30.32;101322.94;5073228;28;20032;-63
2023/06/30 09:59:12;;;;;;;4.82;2.22;;;;;;;27.51;30.70;101329.56;5073202;28;20031;-63
2023/06/30 10:01:40;;;;;;;4.93;2.20;;;;;;;27.39;30.43;101326.53;5072725;28;20089;-63
2023/06/30 10:04:05;;;;;;;6.15;2.20;;;;;;;27.30;29.13;101326.13;5072895;28;20539;-63
2023/06/30 10:06:33;;;;;;;9.70;2.50;;;;;;;26.91;30.82;101329.88;5072916;28;20104;-63
2023/06/30 10:09:02;;;;;;;6.50;2.17;;;;;;;26.81;30.28;101317.72;5072683;28;20037;-63
2023/06/30 10:11:30;;;;;;;4.05;2.25;;;;;;;27.15;29.87;101325.97;5072575;28;20048;-62
2023/06/30 10:13:58;;;;;;;3.60;2.20;;;;;;;27.47;30.25;101320.72;5072607;28;20033;-63
2023/06/30 10:16:25;;;;;;;5.15;2.35;;;;;;;27.93;28.63;101323.72;5072826;28;20025;-63
2023/06/30 10:18:52;;;;;;;5.25;2.40;;;;;;;28.02;28.48;101317.78;5072900;28;20025;-63
2023/06/30 10:21:18;;;;;;;5.30;2.10;;;;;;;28.05;28.18;101306.78;5072933;28;20037;-63
2023/06/30 10:23:46;;;;;;;4.32;2.15;;;;;;;28.03;28.41;101305.97;5072960;28;20039;-63
2023/06/30 10:26:14;;;;;;;4.35;2.40;;;;;;;27.69;28.06;101309.59;5074450;28;20025;-64
2023/06/30 10:28:40;;;;;;;6.82;2.30;;;;;;;27.24;30.42;101307.44;5076767;28;20385;-63
2023/06/30 10:31:08;;;;;;;8.15;2.50;;;;;;;27.33;30.47;101316.00;5076782;28;20036;-63
2023/06/30 10:33:34;;;;;;;5.57;2.65;;;;;;;27.38;29.77;101299.47;5076745;28;20024;-63
2023/06/30 10:36:00;;;;;;;8.95;2.60;;;;;;;27.32;30.05;101314.22;5076557;28;20040;-63
2023/06/30 10:38:26;;;;;;;7.72;2.50;;;;;;;27.35;31.01;101299.63;5076831;28;20106;-63
2023/06/30 10:41:12;;;;;;;7.45;2.58;;;;;;;27.74;31.02;101291.22;5076601;28;20470;-63
2023/06/30 10:44:03;;;;;;;6.82;2.40;;;;;;;28.29;29.01;101287.31;5076564;28;20029;-63
2023/06/30 10:46:55;;;;;;;5.78;2.50;;;;;;;28.60;29.25;101291.91;5076293;28;20482;-63
2023/06/30 10:49:33;;;;;;;5.75;2.28;;;;;;;28.77;29.21;101290.94;5076356;28;20016;-63
2023/06/30 10:52:01;;;;;;;6.05;2.20;;;;;;;28.89;27.90;101266.63;5076432;28;20036;-63
2023/06/30 10:54:28;;;;;;;5.57;2.67;;;;;;;28.84;27.72;101281.47;5076345;28;20034;-63
2023/06/30 10:57:12;;;;;;;8.07;2.38;;;;;;;29.31;28.97;101284.09;5076393;28;20047;-63
2023/06/30 10:59:42;;;;;;;5.35;2.40;;;;;;;29.20;27.87;101279.28;5058378;28;20032;-62
2023/06/30 11:02:23;;;;;;;8.30;2.63;;;;;;;28.99;28.75;101274.25;5076220;28;20040;-63
2023/06/30 11:04:52;;;;;;;5.83;2.30;;;;;;;29.04;27.93;101277.63;5076105;28;20024;-63
2023/06/30 11:07:22;;;;;;;8.45;2.50;;;;;;;29.34;27.50;101272.16;5075996;28;20058;-63
2023/06/30 11:09:50;;;;;;;5.40;2.60;;;;;;;29.32;27.06;101263.19;5075603;28;20377;-64
2023/06/30 11:12:26;;;;;;;6.55;2.40;;;;;;;29.07;28.45;101271.97;5076079;28;20043;-64
2023/06/30 11:14:55;;;;;;;7.13;2.65;;;;;;;29.20;28.47;101262.09;5076047;28;20107;-63
2023/06/30 11:17:22;;;;;;;5.82;2.40;;;;;;;29.42;27.65;101256.19;5075903;28;20024;-62
2023/06/30 11:20:13;;;;;;;5.38;2.50;;;;;;;29.41;28.55;101260.78;5075598;28;20623;-62
2023/06/30 11:22:39;;;;;;;7.60;2.67;;;;;;;29.11;27.45;101265.38;5075807;28;20075;-63